createdAt,value
2019-02-18T00:01:25.027Z,67.64
2019-02-18T00:04:15.230Z,67.90
2019-02-18T00:07:14.003Z,68.53
2019-02-18T00:09:57.853Z,68.81
2019-02-18T00:12:48.476Z,69.09
2019-02-18T00:15:38.882Z,69.25
2019-02-18T00:18:28.968Z,69.25
2019-02-18T00:21:19.203Z,69.26
2019-02-18T00:24:09.322Z,69.52
2019-02-18T00:26:59.507Z,69.47
2019-02-18T00:29:49.619Z,69.95
2019-02-18T00:32:39.934Z,70.14
2019-02-18T00:35:30.086Z,70.69
2019-02-18T00:38:20.370Z,71.26
2019-02-18T00:41:13.664Z,71.30
2019-02-18T00:44:03.827Z,72.10
2019-02-18T00:46:54.349Z,72.55
2019-02-18T00:49:45.508Z,72.48
2019-02-18T00:52:35.843Z,72.32
2019-02-18T00:55:26.125Z,71.98
2019-02-18T00:58:16.480Z,72.23
2019-02-18T01:01:06.682Z,72.68
2019-02-18T01:03:56.982Z,73.08
2019-02-18T01:06:47.180Z,73.51
2019-02-18T01:09:37.615Z,74.02
2019-02-18T01:12:27.966Z,74.84
2019-02-18T01:15:18.523Z,75.63
2019-02-18T01:18:09.009Z,76.18
2019-02-18T01:20:59.229Z,76.79
2019-02-18T01:23:49.327Z,78.11
2019-02-18T01:26:39.447Z,78.56
2019-02-18T01:29:29.542Z,78.75
2019-02-18T01:32:19.871Z,79.06
2019-02-18T01:35:10.413Z,79.27
2019-02-18T01:38:00.510Z,79.10
2019-02-18T01:40:51.005Z,78.59
2019-02-18T01:43:41.448Z,77.43
2019-02-18T01:46:31.878Z,77.27
2019-02-18T01:49:21.963Z,76.50
2019-02-18T01:52:12.212Z,75.55
2019-02-18T01:55:02.480Z,75.20
2019-02-18T01:57:52.518Z,74.52
2019-02-18T02:00:42.677Z,74.28
2019-02-18T02:03:32.677Z,74.61
2019-02-18T02:06:23.126Z,74.34
2019-02-18T02:09:15.498Z,75.05
2019-02-18T02:12:05.853Z,75.69
2019-02-18T02:14:56.413Z,75.76
2019-02-18T02:17:46.660Z,75.48
2019-02-18T02:20:36.902Z,74.76
2019-02-18T02:23:28.254Z,74.62
2019-02-18T02:26:18.580Z,74.71
2019-02-18T02:29:08.622Z,74.49
2019-02-18T02:31:58.827Z,74.54
2019-02-18T02:34:49.211Z,74.58
2019-02-18T02:37:39.202Z,74.80
2019-02-18T02:40:29.566Z,74.93
2019-02-18T02:43:20.034Z,75.73
2019-02-18T02:46:10.289Z,77.20
2019-02-18T02:49:00.328Z,77.54
2019-02-18T02:51:50.437Z,77.41
2019-02-18T02:54:40.727Z,79.09
2019-02-18T02:57:31.018Z,79.83
2019-02-18T03:00:21.188Z,76.82
2019-02-18T03:03:11.431Z,78.14
2019-02-18T03:06:01.425Z,80.20
2019-02-18T03:08:51.865Z,79.92
2019-02-18T03:11:42.377Z,81.21
2019-02-18T03:14:32.786Z,80.83
2019-02-18T03:17:22.994Z,80.76
2019-02-18T03:20:13.293Z,80.83
2019-02-18T03:23:04.594Z,80.95
2019-02-18T03:25:55.839Z,81.35
2019-02-18T03:29:10.134Z,82.59
2019-02-18T03:32:00.870Z,82.94
2019-02-18T03:34:51.463Z,83.45
2019-02-18T03:37:41.699Z,84.65
2019-02-18T03:40:31.611Z,85.40
2019-02-18T03:43:22.107Z,86.98
2019-02-18T03:46:12.371Z,88.40
2019-02-18T03:49:02.492Z,89.09
2019-02-18T03:51:52.713Z,89.76
2019-02-18T03:54:42.988Z,90.77
2019-02-18T03:57:33.177Z,91.43
2019-02-18T04:00:23.467Z,92.22
2019-02-18T04:03:13.828Z,92.79
2019-02-18T04:06:04.079Z,94.25
2019-02-18T04:08:54.295Z,94.25
2019-02-18T04:11:44.329Z,94.50
2019-02-18T04:14:34.617Z,94.90
2019-02-18T04:17:24.999Z,95.48
2019-02-18T04:20:15.214Z,96.04
2019-02-18T04:23:08.280Z,97.27
2019-02-18T04:25:58.306Z,97.75
2019-02-18T04:28:48.627Z,98.30
2019-02-18T04:31:38.837Z,98.78
2019-02-18T04:34:29.313Z,100.00
2019-02-18T04:37:19.520Z,100.00
2019-02-18T04:40:09.603Z,100.00
2019-02-18T04:42:59.683Z,100.00
2019-02-18T04:45:50.311Z,100.00
2019-02-18T04:48:40.561Z,100.00
2019-02-18T04:51:30.747Z,100.00
2019-02-18T04:54:20.746Z,100.00
2019-02-18T04:57:11.254Z,100.00
2019-02-18T05:00:01.890Z,100.00
2019-02-18T05:02:52.036Z,100.00
2019-02-18T05:05:42.089Z,100.00
2019-02-18T05:08:32.487Z,100.00
2019-02-18T05:11:22.619Z,100.00
2019-02-18T05:14:12.989Z,100.00
2019-02-18T05:17:03.264Z,100.00
2019-02-18T05:19:53.630Z,100.00
2019-02-18T05:22:43.881Z,100.00
2019-02-18T05:25:34.257Z,100.00
2019-02-18T05:28:24.751Z,100.00
2019-02-18T05:31:18.049Z,100.00
2019-02-18T05:34:08.271Z,100.00
2019-02-18T05:36:58.785Z,100.00
2019-02-18T05:39:48.889Z,100.00
2019-02-18T05:42:39.264Z,100.00
2019-02-18T05:45:29.463Z,100.00
2019-02-18T05:48:19.819Z,100.00
2019-02-18T05:51:09.830Z,100.00
2019-02-18T05:53:59.982Z,99.38
2019-02-18T05:56:50.254Z,97.95
2019-02-18T05:59:40.584Z,96.27
2019-02-18T06:02:31.077Z,92.46
2019-02-18T06:05:21.221Z,88.59
2019-02-18T06:08:11.530Z,82.59
2019-02-18T06:11:01.581Z,77.42
2019-02-18T06:13:51.882Z,70.99
2019-02-18T06:16:42.493Z,66.42
2019-02-18T06:19:32.668Z,61.28
2019-02-18T06:22:23.169Z,55.26
2019-02-18T06:25:13.348Z,50.48
2019-02-18T06:28:04.959Z,47.16
2019-02-18T06:30:55.546Z,45.53
2019-02-18T06:33:46.003Z,42.49
2019-02-18T06:36:36.332Z,40.46
2019-02-18T06:39:26.621Z,37.76
2019-02-18T06:42:17.378Z,35.92
2019-02-18T06:45:36.100Z,34.49
2019-02-18T06:48:30.307Z,32.60
2019-02-18T06:51:21.310Z,30.86
2019-02-18T06:54:12.172Z,29.80
2019-02-18T06:57:21.235Z,29.35
2019-02-18T07:00:36.945Z,28.66
2019-02-18T07:03:49.769Z,28.37
2019-02-18T07:07:11.810Z,26.86
2019-02-18T07:10:11.291Z,25.87
2019-02-18T07:13:02.170Z,25.17
2019-02-18T07:15:53.208Z,25.71
2019-02-18T07:18:44.102Z,28.76
2019-02-18T07:21:35.095Z,26.03
2019-02-18T07:24:25.919Z,25.43
2019-02-18T07:27:17.002Z,23.78
2019-02-18T07:30:10.754Z,22.69
2019-02-18T07:33:03.822Z,22.01
2019-02-18T07:35:54.678Z,24.18
2019-02-18T07:38:45.635Z,24.77
2019-02-18T07:41:36.489Z,22.00
2019-02-18T07:44:27.458Z,21.74
2019-02-18T07:47:18.307Z,20.90
2019-02-18T07:50:19.984Z,21.97
2019-02-18T07:53:01.790Z,20.89
2019-02-18T07:55:53.821Z,21.06
2019-02-18T07:58:44.501Z,19.76
2019-02-18T08:01:35.460Z,19.81
2019-02-18T08:04:26.383Z,21.16
2019-02-18T08:07:17.336Z,20.67
2019-02-18T08:10:12.403Z,21.16
2019-02-18T08:13:02.375Z,24.67
2019-02-18T08:15:53.031Z,22.34
2019-02-18T08:18:44.235Z,23.77
2019-02-18T08:21:35.200Z,29.67
2019-02-18T08:24:25.956Z,27.53
2019-02-18T08:27:16.989Z,31.67
2019-02-18T08:30:08.850Z,33.97
2019-02-18T08:32:59.342Z,31.85
2019-02-18T08:35:50.327Z,28.65
2019-02-18T08:38:41.198Z,31.71
2019-02-18T08:41:32.215Z,34.09
2019-02-18T08:44:22.815Z,37.73
2019-02-18T08:47:13.112Z,38.32
2019-02-18T08:50:03.470Z,40.59
2019-02-18T08:52:53.912Z,45.21
2019-02-18T08:55:46.378Z,46.33
2019-02-18T08:58:37.587Z,51.68
2019-02-18T09:01:27.811Z,51.68
2019-02-18T09:04:18.263Z,55.91
2019-02-18T09:07:08.723Z,61.31
2019-02-18T09:09:59.121Z,59.22
2019-02-18T09:12:49.450Z,56.01
2019-02-18T09:15:39.859Z,58.20
2019-02-18T09:18:29.788Z,61.37
2019-02-18T09:21:20.444Z,64.63
2019-02-18T09:24:29.323Z,61.02
2019-02-18T09:27:20.820Z,54.47
2019-02-18T09:30:11.059Z,52.70
2019-02-18T09:33:01.537Z,50.89
2019-02-18T09:35:51.804Z,49.25
2019-02-18T09:38:42.120Z,50.95
2019-02-18T09:41:32.947Z,54.46
2019-02-18T09:44:23.298Z,56.94
2019-02-18T09:47:13.471Z,62.02
2019-02-18T09:50:03.920Z,62.51
2019-02-18T09:52:54.118Z,62.17
2019-02-18T09:55:44.613Z,62.70
2019-02-18T09:58:34.877Z,65.01
2019-02-18T10:01:26.264Z,65.52
2019-02-18T10:04:16.525Z,60.74
2019-02-18T10:07:06.851Z,65.73
2019-02-18T10:09:57.045Z,64.56
2019-02-18T10:12:47.416Z,64.87
2019-02-18T10:15:37.867Z,63.29
2019-02-18T10:18:28.148Z,63.46
2019-02-18T10:21:18.123Z,61.99
2019-02-18T10:24:08.198Z,63.81
2019-02-18T10:26:58.353Z,54.31
2019-02-18T10:29:48.648Z,58.65
2019-02-18T10:32:39.033Z,56.55
2019-02-18T10:35:29.503Z,63.52
2019-02-18T10:38:19.728Z,57.01
2019-02-18T10:41:10.241Z,57.58
2019-02-18T10:44:00.536Z,60.69
2019-02-18T10:46:51.081Z,60.36
2019-02-18T10:49:41.418Z,64.22
2019-02-18T10:52:31.681Z,67.78
2019-02-18T10:55:21.939Z,65.82
2019-02-18T10:58:12.382Z,65.43
2019-02-18T11:01:02.439Z,64.91
2019-02-18T11:03:52.563Z,70.42
2019-02-18T11:06:42.799Z,65.52
2019-02-18T11:09:33.345Z,68.25
2019-02-18T11:12:23.504Z,67.66
2019-02-18T11:15:13.984Z,69.84
2019-02-18T11:18:04.531Z,68.80
2019-02-18T11:20:54.762Z,65.93
2019-02-18T11:23:44.841Z,66.81
2019-02-18T11:26:35.135Z,63.39
2019-02-18T11:29:25.526Z,64.46
2019-02-18T11:32:15.904Z,66.06
2019-02-18T11:35:06.167Z,67.51
2019-02-18T11:37:56.519Z,63.15
2019-02-18T11:40:47.186Z,67.80
2019-02-18T11:43:37.885Z,64.63
2019-02-18T11:46:28.147Z,62.39
2019-02-18T11:49:19.493Z,60.69
2019-02-18T11:52:09.578Z,62.37
2019-02-18T11:54:59.638Z,63.31
2019-02-18T11:57:49.820Z,65.61
2019-02-18T12:00:40.269Z,65.96
2019-02-18T12:03:30.612Z,65.41
2019-02-18T12:06:21.061Z,61.23
2019-02-18T12:09:12.123Z,67.12
2019-02-18T12:12:02.976Z,69.39
2019-02-18T12:14:53.468Z,64.67
2019-02-18T12:17:44.119Z,66.78
2019-02-18T12:20:34.068Z,50.91
2019-02-18T12:23:24.847Z,58.77
2019-02-18T12:26:15.077Z,53.50
2019-02-18T12:29:05.494Z,46.63
2019-02-18T12:31:55.576Z,53.67
2019-02-18T12:34:46.519Z,53.32
2019-02-18T12:37:36.813Z,61.03
2019-02-18T12:40:27.293Z,62.24
2019-02-18T12:43:17.807Z,64.89
2019-02-18T12:46:15.581Z,62.73
2019-02-18T12:49:00.200Z,57.62
2019-02-18T12:51:50.424Z,56.50
2019-02-18T12:54:40.463Z,61.99
2019-02-18T12:57:30.686Z,47.69
2019-02-18T13:00:21.263Z,63.82
2019-02-18T13:03:11.787Z,60.06
2019-02-18T13:06:02.347Z,58.44
2019-02-18T13:08:52.600Z,58.05
2019-02-18T13:11:42.823Z,58.19
2019-02-18T13:14:33.341Z,59.14
2019-02-18T13:17:23.776Z,57.65
2019-02-18T13:20:14.269Z,55.91
2019-02-18T13:23:04.748Z,60.72
2019-02-18T13:25:55.113Z,59.72
2019-02-18T13:28:45.438Z,60.92
2019-02-18T13:31:36.047Z,61.89
2019-02-18T13:34:26.397Z,59.31
2019-02-18T13:37:16.662Z,58.78
2019-02-18T13:40:07.059Z,57.22
2019-02-18T13:42:57.660Z,59.91
2019-02-18T13:45:50.332Z,58.40
2019-02-18T13:48:43.398Z,59.79
2019-02-18T13:51:33.429Z,57.23
2019-02-18T13:54:23.830Z,57.66
2019-02-18T13:57:15.250Z,59.51
2019-02-18T14:00:07.372Z,57.91
2019-02-18T14:02:57.926Z,58.16
2019-02-18T14:05:49.049Z,60.06
2019-02-18T14:08:39.364Z,61.63
2019-02-18T14:11:29.778Z,60.82
2019-02-18T14:14:19.783Z,61.80
2019-02-18T14:17:10.298Z,62.25
2019-02-18T14:20:00.550Z,62.09
2019-02-18T14:22:51.647Z,64.25
2019-02-18T14:25:42.016Z,66.09
2019-02-18T14:28:32.436Z,66.57
2019-02-18T14:31:23.024Z,66.85
2019-02-18T14:34:13.255Z,66.39
2019-02-18T14:37:04.057Z,67.49
2019-02-18T14:39:55.016Z,67.77
2019-02-18T14:42:45.632Z,68.80
2019-02-18T14:45:36.517Z,69.37
2019-02-18T14:48:26.549Z,69.15
2019-02-18T14:51:16.894Z,69.21
2019-02-18T14:54:07.256Z,70.11
2019-02-18T14:56:57.710Z,70.50
2019-02-18T14:59:47.981Z,70.49
2019-02-18T15:02:41.874Z,71.10
2019-02-18T15:05:32.166Z,70.77
2019-02-18T15:08:23.662Z,71.05
2019-02-18T15:11:13.937Z,71.38
2019-02-18T15:14:04.121Z,72.00
2019-02-18T15:16:54.610Z,71.39
2019-02-18T15:19:44.759Z,71.75
2019-02-18T15:22:35.057Z,71.25
2019-02-18T15:25:25.829Z,70.98
2019-02-18T15:28:16.049Z,71.46
2019-02-18T15:31:06.294Z,71.61
2019-02-18T15:33:56.486Z,72.04
2019-02-18T15:36:47.092Z,72.45
2019-02-18T15:39:37.307Z,72.56
2019-02-18T15:42:27.894Z,73.37
2019-02-18T15:45:18.419Z,73.57
2019-02-18T15:48:08.690Z,74.24
2019-02-18T15:50:58.747Z,74.89
2019-02-18T15:53:48.838Z,74.79
2019-02-18T15:56:39.071Z,74.55
2019-02-18T15:59:29.280Z,75.15
2019-02-18T16:02:21.172Z,74.70
2019-02-18T16:05:11.304Z,74.80
2019-02-18T16:08:01.623Z,74.51
2019-02-18T16:10:52.875Z,75.40
2019-02-18T16:13:43.214Z,75.41
2019-02-18T16:16:33.807Z,75.37
2019-02-18T16:19:23.981Z,75.08
2019-02-18T16:22:14.257Z,72.98
2019-02-18T16:25:04.454Z,71.06
2019-02-18T16:27:54.724Z,68.96
2019-02-18T16:30:45.300Z,67.52
2019-02-18T16:33:35.676Z,65.76
2019-02-18T16:36:25.991Z,60.75
2019-02-18T16:39:16.826Z,58.07
2019-02-18T16:42:06.898Z,54.24
2019-02-18T16:44:57.510Z,54.81
2019-02-18T16:47:47.690Z,55.32
2019-02-18T16:50:38.099Z,54.54
2019-02-18T16:53:28.286Z,54.57
2019-02-18T16:56:18.994Z,55.04
2019-02-18T16:59:09.294Z,56.07
2019-02-18T17:01:59.678Z,56.65
2019-02-18T17:04:49.845Z,56.55
2019-02-18T17:07:40.322Z,56.91
2019-02-18T17:10:30.389Z,57.87
2019-02-18T17:13:21.557Z,56.76
2019-02-18T17:16:12.610Z,57.04
2019-02-18T17:19:03.003Z,57.54
2019-02-18T17:21:53.406Z,56.82
2019-02-18T17:24:43.969Z,55.83
2019-02-18T17:27:34.135Z,56.55
2019-02-18T17:30:25.100Z,56.75
2019-02-18T17:33:15.473Z,56.06
2019-02-18T17:36:05.734Z,55.65
2019-02-18T17:38:56.018Z,54.92
2019-02-18T17:41:47.438Z,54.44
2019-02-18T17:44:37.433Z,54.44
2019-02-18T17:47:27.843Z,55.28
2019-02-18T17:50:19.194Z,57.29
2019-02-18T17:53:09.746Z,58.62
2019-02-18T17:56:00.261Z,61.33
2019-02-18T17:58:51.837Z,63.35
2019-02-18T18:01:42.137Z,65.30
2019-02-18T18:04:32.264Z,66.96
2019-02-18T18:07:24.442Z,67.49
2019-02-18T18:10:17.077Z,68.30
2019-02-18T18:13:07.403Z,68.73
2019-02-18T18:15:57.809Z,68.68
2019-02-18T18:18:48.123Z,68.43
2019-02-18T18:21:38.551Z,68.93
2019-02-18T18:24:29.034Z,70.20
2019-02-18T18:27:19.343Z,70.75
2019-02-18T18:30:11.493Z,70.20
2019-02-18T18:33:01.849Z,68.43
2019-02-18T18:35:51.934Z,67.96
2019-02-18T18:38:42.677Z,65.57
2019-02-18T18:41:32.715Z,64.89
2019-02-18T18:44:23.074Z,64.78
2019-02-18T18:47:13.419Z,66.20
2019-02-18T18:50:03.790Z,67.07
2019-02-18T18:52:55.944Z,68.41
2019-02-18T18:55:46.242Z,68.19
2019-02-18T18:58:36.222Z,68.23
2019-02-18T19:01:26.273Z,68.49
2019-02-18T19:04:16.503Z,69.04
2019-02-18T19:07:07.056Z,68.32
2019-02-18T19:09:57.418Z,67.79
2019-02-18T19:12:47.866Z,68.24
2019-02-18T19:15:38.105Z,65.86
2019-02-18T19:18:29.395Z,66.60
2019-02-18T19:21:19.675Z,66.75
2019-02-18T19:24:10.082Z,66.08
2019-02-18T19:27:00.348Z,65.29
2019-02-18T19:29:51.033Z,65.15
2019-02-18T19:32:41.262Z,64.54
2019-02-18T19:35:31.888Z,62.25
2019-02-18T19:38:22.044Z,61.75
2019-02-18T19:41:12.899Z,62.09
2019-02-18T19:44:03.226Z,64.06
2019-02-18T19:46:54.907Z,64.77
2019-02-18T19:49:47.915Z,63.13
2019-02-18T19:52:38.304Z,61.96
2019-02-18T19:55:28.553Z,62.50
2019-02-18T19:58:19.152Z,63.40
2019-02-18T20:01:09.150Z,63.86
2019-02-18T20:03:59.531Z,64.21
2019-02-18T20:06:49.601Z,64.31
2019-02-18T20:09:40.906Z,60.81
2019-02-18T20:12:31.236Z,60.87
2019-02-18T20:15:22.059Z,62.85
2019-02-18T20:18:13.825Z,62.43
2019-02-18T20:21:04.394Z,60.03
2019-02-18T20:23:54.527Z,58.72
2019-02-18T20:26:44.835Z,55.37
2019-02-18T20:29:35.074Z,53.51
2019-02-18T20:32:25.120Z,50.84
2019-02-18T20:35:15.373Z,50.29
2019-02-18T20:38:05.519Z,50.47
2019-02-18T20:40:55.753Z,48.86
2019-02-18T20:43:46.138Z,47.74
2019-02-18T20:46:36.434Z,47.11
2019-02-18T20:49:27.094Z,46.79
2019-02-18T20:52:17.458Z,45.28
2019-02-18T20:55:09.203Z,44.61
2019-02-18T20:57:59.317Z,44.41
2019-02-18T21:00:49.710Z,44.34
2019-02-18T21:03:40.044Z,43.77
2019-02-18T21:06:30.407Z,43.58
2019-02-18T21:09:20.401Z,43.79
2019-02-18T21:12:19.602Z,44.35
2019-02-18T21:15:03.271Z,44.80
2019-02-18T21:17:53.687Z,44.46
2019-02-18T21:20:44.020Z,47.95
2019-02-18T21:23:34.543Z,48.91
2019-02-18T21:26:25.166Z,48.64
2019-02-18T21:29:17.243Z,47.59
2019-02-18T21:32:08.972Z,49.65
2019-02-18T21:34:59.632Z,51.34
2019-02-18T21:37:49.850Z,52.26
2019-02-18T21:40:40.177Z,52.70
2019-02-18T21:43:30.189Z,53.53
2019-02-18T21:46:21.384Z,56.29
2019-02-18T21:49:11.614Z,58.95
2019-02-18T21:52:02.047Z,60.33
2019-02-18T21:54:52.347Z,60.56
2019-02-18T21:57:42.622Z,59.34
2019-02-18T22:00:33.161Z,59.75
2019-02-18T22:03:23.685Z,61.26
2019-02-18T22:06:14.039Z,62.38
2019-02-18T22:09:05.176Z,63.46
2019-02-18T22:11:56.346Z,64.64
2019-02-18T22:14:46.772Z,66.64
2019-02-18T22:17:36.734Z,67.58
2019-02-18T22:20:27.049Z,68.47
2019-02-18T22:23:17.270Z,68.96
2019-02-18T22:26:07.630Z,69.54
2019-02-18T22:28:57.878Z,69.91
2019-02-18T22:31:48.347Z,70.51
2019-02-18T22:34:38.802Z,70.54
2019-02-18T22:37:29.207Z,69.91
2019-02-18T22:40:19.536Z,68.67
2019-02-18T22:43:09.936Z,67.97
2019-02-18T22:46:00.634Z,68.19
2019-02-18T22:48:50.813Z,68.50
2019-02-18T22:51:40.870Z,69.22
2019-02-18T22:54:31.221Z,70.23
2019-02-18T22:57:21.203Z,71.84
2019-02-18T23:00:18.759Z,72.66
2019-02-18T23:03:10.487Z,73.87
2019-02-18T23:06:00.914Z,75.13
2019-02-18T23:08:53.329Z,75.88
2019-02-18T23:11:43.664Z,77.29
2019-02-18T23:14:33.961Z,79.38
2019-02-18T23:17:24.328Z,80.23
2019-02-18T23:20:14.722Z,81.17
2019-02-18T23:23:05.329Z,81.89
2019-02-18T23:25:55.798Z,82.97
2019-02-18T23:28:46.309Z,85.42
2019-02-18T23:31:36.509Z,86.09
2019-02-18T23:34:27.238Z,85.38
2019-02-18T23:37:17.472Z,84.86
2019-02-18T23:40:07.787Z,84.21
2019-02-18T23:42:57.800Z,83.53
2019-02-18T23:45:47.893Z,83.18
2019-02-18T23:48:38.133Z,82.37
2019-02-18T23:51:28.691Z,81.93
2019-02-18T23:54:19.139Z,81.25
2019-02-18T23:57:09.521Z,80.28
2019-02-18T23:59:59.805Z,81.02
